DKKHK EDLW-ZZZZ

Flight info

Callsign DKKHK
Flight time N/A
Altitude
Route
Aircraft DISC

Departure

Time 2026-05-06 18:23
Airport Dortmund Airport (EDLW)

Arrival

Time N/A
Airport ZZZZ
Time Latitude Longitude Altitude Speed Heading
2026-05-06 18:23 51.60727 7.61280 2373 ft 98 kts
2026-05-06 18:23 51.61363 7.61297 2338 ft 92 kts 344°
2026-05-06 18:23 51.61974 7.60949 2225 ft 94 kts 320°
2026-05-06 18:24 51.62209 7.59952 1901 ft 113 kts 275°
2026-05-06 18:24 51.62207 7.58557 1522 ft 132 kts 263°
2026-05-06 18:24 51.62115 7.57054 1040 ft 148 kts 265°
2026-05-06 18:24 51.62076 7.55379 605 ft 142 kts 264°
2026-05-06 18:25 51.62006 7.53790 437 ft 108 kts 258°
2026-05-06 18:25 51.61958 7.53028 698 ft 54 kts 266°
2026-05-06 18:25 51.61937 7.52419 591 ft 57 kts 255°
2026-05-06 18:25 51.61872 7.51841 434 ft 54 kts 255°
2026-05-06 18:26 51.61792 7.51263 289 ft 59 kts 273°
2026-05-06 18:26 51.61771 7.50691 166 ft 38 kts 266°
2026-05-06 18:26 51.61767 7.50596 167 ft 3 kts 266°
2026-05-06 18:26 51.61764 7.50506 169 ft 13 kts 268°
2026-05-06 18:27 51.61751 7.50297 168 ft 26 kts 264°
2026-05-06 18:27 51.61733 7.49931 166 ft 41 kts 264°
2026-05-06 18:27 51.61715 7.49403 226 ft 46 kts 268°
2026-05-06 18:27 51.61775 7.48894 286 ft 58 kts 318°
2026-05-06 18:28 51.62156 7.49107 386 ft 76 kts 56°
2026-05-06 18:28 51.62046 7.49645 435 ft 47 kts 210°
2026-05-06 18:28 51.61863 7.49227 487 ft 47 kts 197°